createdAt,value
2018-08-28T00:00:42.719Z,7
2018-08-28T00:05:45.033Z,3
2018-08-28T00:20:52.560Z,4
2018-08-28T00:25:55.149Z,4
2018-08-28T00:30:57.220Z,4
2018-08-28T00:36:06.991Z,4
2018-08-28T00:41:02.200Z,4
2018-08-28T00:46:05.039Z,4
2018-08-28T00:51:06.975Z,3
2018-08-28T01:01:11.986Z,4
2018-08-28T01:11:16.735Z,5
2018-08-28T01:16:19.187Z,4
2018-08-28T01:21:21.641Z,6
2018-08-28T01:26:24.068Z,6
2018-08-28T01:31:26.517Z,5
2018-08-28T01:36:28.957Z,4
2018-08-28T01:41:31.433Z,6
2018-08-28T01:46:33.829Z,6
2018-08-28T01:51:36.288Z,6
2018-08-28T01:56:38.712Z,5
2018-08-28T02:16:48.461Z,4
2018-08-28T02:21:51.004Z,4
2018-08-28T02:26:53.366Z,6
2018-08-28T02:31:55.807Z,5
2018-08-28T02:36:58.238Z,5
2018-08-28T02:42:00.788Z,5
2018-08-28T02:47:03.143Z,6
2018-08-28T02:52:05.576Z,5
2018-08-28T02:57:08.035Z,7
2018-08-28T03:02:10.463Z,5
2018-08-28T03:07:14.693Z,6
2018-08-28T03:12:15.455Z,5
2018-08-28T03:17:17.767Z,4
2018-08-28T03:22:20.206Z,6
2018-08-28T03:27:22.928Z,5
2018-08-28T03:32:25.119Z,6
2018-08-28T03:37:27.532Z,6
2018-08-28T03:42:29.955Z,6
2018-08-28T03:47:32.400Z,6
2018-08-28T03:52:34.886Z,6
2018-08-28T03:57:37.305Z,12
2018-08-28T04:02:39.732Z,10
2018-08-28T04:07:42.421Z,10
2018-08-28T04:12:44.681Z,12
2018-08-28T04:17:47.367Z,12
2018-08-28T04:22:49.537Z,14
2018-08-28T04:27:52.099Z,21
2018-08-28T04:32:54.871Z,11
2018-08-28T04:37:56.986Z,10
2018-08-28T04:42:59.344Z,6
2018-08-28T04:48:02.012Z,8
2018-08-28T04:53:04.195Z,27
2018-08-28T04:58:06.797Z,51
2018-08-28T05:03:09.038Z,40
2018-08-28T05:13:13.945Z,33
2018-08-28T05:18:16.373Z,37
2018-08-28T05:23:18.801Z,12
2018-08-28T05:28:21.257Z,6
2018-08-28T05:33:23.656Z,19
2018-08-28T05:38:26.113Z,7
2018-08-28T05:43:28.552Z,9
2018-08-28T05:48:31.002Z,9
2018-08-28T05:58:35.856Z,7
2018-08-28T06:03:38.296Z,7
2018-08-28T06:08:40.962Z,8
2018-08-28T06:13:43.197Z,10
2018-08-28T06:18:45.621Z,14
2018-08-28T06:33:53.065Z,10
2018-08-28T06:38:55.432Z,11
2018-08-28T06:43:57.925Z,11
2018-08-28T06:49:00.312Z,13
2018-08-28T06:59:06.097Z,12
2018-08-28T07:04:09.892Z,15
2018-08-28T07:09:10.224Z,12
2018-08-28T07:14:12.628Z,13
2018-08-28T07:19:14.903Z,16
2018-08-28T07:24:17.358Z,13
2018-08-28T07:29:19.810Z,14
2018-08-28T07:34:22.317Z,14
2018-08-28T07:39:24.669Z,14
2018-08-28T07:44:27.107Z,14
2018-08-28T07:49:29.691Z,16
2018-08-28T07:54:32.005Z,14
2018-08-28T07:59:34.519Z,15
2018-08-28T08:04:36.991Z,17
2018-08-28T08:09:39.455Z,16
2018-08-28T08:14:41.753Z,16
2018-08-28T08:19:44.326Z,15
2018-08-28T08:24:49.107Z,16
2018-08-28T08:29:49.216Z,18
2018-08-28T08:34:51.552Z,22
2018-08-28T08:39:53.970Z,17
2018-08-28T08:49:58.852Z,16
2018-08-28T08:55:02.301Z,17
2018-08-28T09:05:06.186Z,21
2018-08-28T09:10:09.020Z,16
2018-08-28T09:15:11.143Z,18
2018-08-28T09:20:13.506Z,16
2018-08-28T09:25:16.000Z,17
2018-08-28T09:30:18.429Z,16
2018-08-28T09:35:20.938Z,16
2018-08-28T09:45:25.706Z,19
2018-08-28T09:50:28.177Z,18
2018-08-28T09:55:30.601Z,19
2018-08-28T10:10:37.908Z,20
2018-08-28T10:15:40.350Z,15
2018-08-28T10:25:45.213Z,11
2018-08-28T10:35:50.100Z,13
2018-08-28T10:40:53.355Z,14
2018-08-28T10:45:55.060Z,13
2018-08-28T11:01:02.332Z,14
2018-08-28T11:06:04.757Z,15
2018-08-28T11:21:12.120Z,10
2018-08-28T11:36:19.584Z,12
2018-08-28T11:56:29.662Z,13
2018-08-28T12:01:31.774Z,10
2018-08-28T12:06:34.163Z,11
2018-08-28T12:11:36.519Z,13
2018-08-28T12:16:38.933Z,10
2018-08-28T12:26:43.968Z,13
2018-08-28T12:31:46.316Z,15
2018-08-28T12:36:48.785Z,11
2018-08-28T12:41:51.239Z,14
2018-08-28T12:56:58.500Z,10
2018-08-28T13:02:01.035Z,13
2018-08-28T13:22:10.665Z,17
2018-08-28T13:27:13.109Z,10
2018-08-28T13:37:17.995Z,23
2018-08-28T13:42:20.427Z,11
2018-08-28T13:47:22.891Z,11
2018-08-28T13:52:25.317Z,13
2018-08-28T14:02:30.303Z,13
2018-08-28T14:07:32.653Z,11
2018-08-28T14:12:35.090Z,12
2018-08-28T14:17:37.533Z,11
2018-08-28T14:27:42.588Z,13
2018-08-28T14:32:44.863Z,10
2018-08-28T14:42:49.763Z,12
2018-08-28T14:47:52.176Z,10
2018-08-28T14:57:57.080Z,11
2018-08-28T15:03:00.952Z,10
2018-08-28T15:08:02.059Z,10
2018-08-28T15:18:06.859Z,12
2018-08-28T15:23:09.300Z,12
2018-08-28T15:28:11.947Z,10
2018-08-28T15:33:14.418Z,9
2018-08-28T15:38:16.876Z,10
2018-08-28T15:43:19.132Z,10
2018-08-28T15:48:21.495Z,13
2018-08-28T15:58:26.377Z,12
2018-08-28T16:03:28.809Z,11
2018-08-28T16:08:31.520Z,14
2018-08-28T16:13:33.690Z,9
2018-08-28T16:18:36.259Z,12
2018-08-28T16:23:38.651Z,10
2018-08-28T16:28:41.725Z,10
2018-08-28T16:33:43.531Z,9
2018-08-28T16:38:46.026Z,12
2018-08-28T16:43:48.432Z,8
2018-08-28T16:48:50.805Z,11
2018-08-28T16:53:53.276Z,12
2018-08-28T16:58:55.704Z,9
2018-08-28T17:03:58.112Z,11
2018-08-28T17:09:00.916Z,13
2018-08-28T17:14:03.067Z,13
2018-08-28T17:29:10.339Z,28
2018-08-28T17:34:12.765Z,12
2018-08-28T17:44:17.937Z,9
2018-08-28T17:59:25.003Z,9
2018-08-28T18:04:28.440Z,9
2018-08-28T18:09:29.866Z,11
2018-08-28T18:14:32.626Z,9
2018-08-28T18:19:34.743Z,10
2018-08-28T18:24:37.284Z,13
2018-08-28T18:29:39.629Z,12
2018-08-28T18:34:42.432Z,10
2018-08-28T18:39:44.508Z,13
2018-08-28T18:44:47.125Z,10
2018-08-28T18:49:49.389Z,12
2018-08-28T18:59:54.260Z,13
2018-08-28T19:04:56.714Z,10
2018-08-28T19:20:04.025Z,11
2018-08-28T19:25:06.563Z,14
2018-08-28T19:30:08.920Z,15
2018-08-28T19:45:16.412Z,16
2018-08-28T19:50:18.690Z,13
2018-08-28T20:00:23.540Z,12
2018-08-28T20:05:25.985Z,12
2018-08-28T20:10:28.414Z,12
2018-08-28T20:15:30.881Z,11
2018-08-28T20:25:35.746Z,12
2018-08-28T20:30:38.192Z,12
2018-08-28T20:35:40.950Z,16
2018-08-28T20:40:43.189Z,10
2018-08-28T20:45:45.588Z,10
2018-08-28T20:50:48.013Z,16
2018-08-28T20:55:50.403Z,13
2018-08-28T21:00:52.829Z,13
2018-08-28T21:10:57.729Z,12
2018-08-28T21:16:00.146Z,11
2018-08-28T21:21:02.611Z,13
2018-08-28T21:36:09.921Z,13
2018-08-28T21:41:12.368Z,13
2018-08-28T21:51:17.240Z,12
2018-08-28T21:56:19.847Z,13
2018-08-28T22:01:22.176Z,12
2018-08-28T22:06:24.557Z,13
2018-08-28T22:11:30.986Z,13
2018-08-28T22:16:29.451Z,13
2018-08-28T22:21:31.931Z,12
2018-08-28T22:26:34.432Z,10
2018-08-28T22:31:36.916Z,11
2018-08-28T22:41:41.658Z,10
2018-08-28T22:46:44.121Z,11
2018-08-28T22:51:46.526Z,13
2018-08-28T23:01:51.398Z,12
2018-08-28T23:06:53.846Z,11
2018-08-28T23:11:56.298Z,12
2018-08-28T23:16:58.740Z,11
2018-08-28T23:22:01.170Z,10
2018-08-28T23:27:03.614Z,12
2018-08-28T23:37:08.540Z,13
2018-08-28T23:42:10.930Z,12
2018-08-28T23:47:13.363Z,11
2018-08-28T23:57:18.244Z,11
